Weather at Charlotte Douglas International Airport

Public forecast

Using degrees Fahrenheit for public forecast. Weather courtesy of forecast.io.

Current aviation weather report (METAR) for Charlotte Douglas International Airport

2022/12/08 12:18 (retrieved 30 minutes ago)

KCLT 081218Z 33003KT 1/2SM FG VV002 14/14 A3022 RMK T01440139 RVRNO

Aviation forecast (TAF) for Charlotte Douglas International Airport

2022/12/08 12:33 (retrieved 15 minutes ago)

TAF KCLT 081130Z 0812/0918 36003KT 1SM BR OVC003 TEMPO 0812/0815 1/4SM -DZ FG VV002 FM081500 05006KT 3SM BR BKN008 FM081700 05006KT P6SM BKN015 PROB30 0821/0903 4SM -SHRA BR OVC007 FM090400 08005KT 4SM -SHRA BR OVC004 FM091500 06007KT P6SM OVC007